createdAt,value
2019-02-06T00:07:14.254Z,2.7
2019-02-06T00:17:17.779Z,2.6
2019-02-06T00:27:21.311Z,2.6
2019-02-06T00:37:24.768Z,2.6
2019-02-06T00:47:28.241Z,2.6
2019-02-06T00:57:31.718Z,2.5
2019-02-06T01:07:35.182Z,2.6
2019-02-06T01:17:38.647Z,2.6
2019-02-06T01:27:42.129Z,2.4
2019-02-06T01:37:45.604Z,2.3
2019-02-06T01:47:49.171Z,2.4
2019-02-06T01:57:53.503Z,2.3
2019-02-06T02:07:56.964Z,2.3
2019-02-06T02:18:00.498Z,2.2
2019-02-06T02:28:03.960Z,2.3
2019-02-06T02:38:08.706Z,2.2
2019-02-06T02:48:12.176Z,2.2
2019-02-06T02:58:15.612Z,2.3
2019-02-06T03:08:19.110Z,2.3
2019-02-06T03:18:23.355Z,2.2
2019-02-06T03:28:26.784Z,2.3
2019-02-06T03:38:30.261Z,2.3
2019-02-06T03:48:33.742Z,2.2
2019-02-06T03:58:38.377Z,2.1
2019-02-06T04:08:41.860Z,2.1
2019-02-06T04:18:45.356Z,2.1
2019-02-06T04:28:48.812Z,2
2019-02-06T04:38:53.399Z,2.1
2019-02-06T04:48:56.859Z,2.1
2019-02-06T04:59:00.297Z,2.1
2019-02-06T05:09:03.719Z,2
2019-02-06T05:19:07.192Z,2.1
2019-02-06T05:29:10.633Z,2.1
2019-02-06T05:39:14.087Z,2
2019-02-06T05:49:17.551Z,1.9
2019-02-06T05:59:21.013Z,1.9
2019-02-06T06:09:24.650Z,2.1
2019-02-06T06:19:28.098Z,1.9
2019-02-06T06:29:32.696Z,2.1
2019-02-06T06:39:36.136Z,2.1
2019-02-06T06:49:39.587Z,2.1
2019-02-06T06:59:43.040Z,1.9
2019-02-06T07:09:46.553Z,1.9
2019-02-06T07:19:50.003Z,2
2019-02-06T07:29:53.429Z,2
2019-02-06T07:39:56.849Z,1.9
2019-02-06T07:50:00.449Z,1.9
2019-02-06T08:00:03.920Z,2
2019-02-06T08:10:07.363Z,2.1
2019-02-06T08:20:11.003Z,2.1
2019-02-06T08:30:14.463Z,2.2
2019-02-06T08:40:17.931Z,2.2
2019-02-06T08:50:21.401Z,2.3
2019-02-06T09:10:33.979Z,2.2
2019-02-06T09:20:37.434Z,2.2
2019-02-06T09:30:40.887Z,2.1
2019-02-06T09:40:44.316Z,2.2
2019-02-06T09:50:47.777Z,2.4
2019-02-06T10:00:51.256Z,2.4
2019-02-06T10:10:54.724Z,2.4
2019-02-06T10:20:59.484Z,2.4
2019-02-06T10:31:02.982Z,2.4
2019-02-06T10:41:06.501Z,2.4
2019-02-06T10:51:09.959Z,2.4
2019-02-06T11:01:14.761Z,2.4
2019-02-06T11:11:18.223Z,2.4
2019-02-06T11:21:21.663Z,2.3
2019-02-06T11:31:25.152Z,2.5
2019-02-06T11:41:28.603Z,2.3
2019-02-06T11:51:32.038Z,2.5
2019-02-06T12:01:35.523Z,2.1
2019-02-06T12:11:38.956Z,2.4
2019-02-06T12:21:42.355Z,2.3
2019-02-06T12:31:45.826Z,2.4
2019-02-06T12:41:49.279Z,2.4
2019-02-06T12:51:53.960Z,2.4
2019-02-06T13:01:57.530Z,2.4
2019-02-06T13:12:00.969Z,2.5
2019-02-06T13:22:04.563Z,2.6
2019-02-06T13:32:07.968Z,2.5
2019-02-06T13:42:11.423Z,2.6
2019-02-06T13:52:14.910Z,2.5
2019-02-06T14:02:18.715Z,2.5
2019-02-06T14:12:22.176Z,2.6
2019-02-06T14:22:25.619Z,2.7
2019-02-06T14:32:29.068Z,2.4
2019-02-06T14:42:32.545Z,2.5
2019-02-06T14:52:35.987Z,2.4
2019-02-06T15:02:39.467Z,2.7
2019-02-06T15:12:42.913Z,2.6
2019-02-06T15:22:46.355Z,2.6
2019-02-06T15:32:50.890Z,2.6
2019-02-06T15:42:54.345Z,2.7
2019-02-06T15:52:57.780Z,2.6
2019-02-06T16:03:01.249Z,2.4
2019-02-06T16:13:04.709Z,2.5
2019-02-06T16:23:08.142Z,2.4
2019-02-06T16:33:11.631Z,2.5
2019-02-06T16:43:15.081Z,2.4
2019-02-06T16:53:18.543Z,2.4
2019-02-06T17:03:21.953Z,2.3
2019-02-06T17:13:25.392Z,2.2
2019-02-06T17:23:28.863Z,2.3
2019-02-06T17:33:32.295Z,2.3
2019-02-06T17:43:36.438Z,2.3
2019-02-06T17:53:39.906Z,2.3
2019-02-06T18:03:43.371Z,2.2
2019-02-06T18:13:46.830Z,2.3
2019-02-06T18:23:50.306Z,2.2
2019-02-06T18:33:53.816Z,2.3
2019-02-06T18:43:57.356Z,2
2019-02-06T18:54:00.923Z,2.1
2019-02-06T19:04:04.498Z,2
2019-02-06T19:14:08.135Z,2.1
2019-02-06T19:24:12.755Z,2.1
2019-02-06T19:34:16.254Z,2.2
2019-02-06T19:44:19.757Z,2.1
2019-02-06T19:54:24.289Z,2
2019-02-06T20:04:27.814Z,2
2019-02-06T20:14:31.344Z,1.9
2019-02-06T20:24:36.016Z,1.9
2019-02-06T20:34:39.514Z,1.8
2019-02-06T20:44:43.041Z,1.9
2019-02-06T20:54:47.745Z,1.8
2019-02-06T21:04:51.211Z,1.8
2019-02-06T21:14:55.706Z,1.8
2019-02-06T21:24:59.207Z,1.8
2019-02-06T21:35:02.655Z,1.8
2019-02-06T21:45:07.140Z,1.7
2019-02-06T21:55:10.560Z,1.7
2019-02-06T22:05:14.428Z,1.7
2019-02-06T22:15:18.004Z,1.6
2019-02-06T22:25:21.500Z,1.6
2019-02-06T22:35:24.990Z,1.5
2019-02-06T22:45:28.481Z,1.7
2019-02-06T22:55:32.045Z,1.6
2019-02-06T23:05:35.545Z,1.6
2019-02-06T23:15:38.981Z,1.6
2019-02-06T23:25:43.184Z,1.6
2019-02-06T23:35:48.995Z,1.6
2019-02-06T23:45:52.429Z,1.6
2019-02-06T23:55:55.878Z,1.7
